UAL328 KSAN-KSFO
Flight info
| Callsign | UAL328 |
|---|---|
| Flight time | 1h 10m |
| Altitude | 36000 |
| Route | PADRZ2 IKAYE RIZIN SPLNT STOKD SERFR SERFR4 |
| Aircraft | B738/M-SDE2E3FGHIRWXY/LB1 |
Departure
| Time | 2026-04-24 22:44 |
|---|---|
| Airport | San Diego International Airport (KSAN) |
Arrival
| Time | 2026-04-24 23:54 |
|---|---|
| Airport | San Francisco International Airport (KSFO) |
| Time | Latitude | Longitude | Altitude | Speed | Heading |
|---|---|---|---|---|---|
| 2026-04-24 22:20 | 32.73428 | -117.20466 | 20 ft | 0 kts | 109° |
| 2026-04-24 22:32 | 32.73432 | -117.20477 | 20 ft | 4 kts | 107° |
| 2026-04-24 22:32 | 32.73439 | -117.20507 | 23 ft | 4 kts | 100° |
| 2026-04-24 22:32 | 32.73439 | -117.20538 | 22 ft | 4 kts | 66° |
| 2026-04-24 22:33 | 32.73424 | -117.20556 | 23 ft | 3 kts | 4° |
| 2026-04-24 22:33 | 32.73421 | -117.20556 | 22 ft | 1 kts | 0° |
| 2026-04-24 22:36 | 32.73423 | -117.20556 | 23 ft | 1 kts | 1° |
| 2026-04-24 22:36 | 32.73435 | -117.20556 | 21 ft | 2 kts | 3° |
| 2026-04-24 22:36 | 32.73459 | -117.20554 | 20 ft | 4 kts | 7° |
| 2026-04-24 22:36 | 32.73492 | -117.20534 | 18 ft | 7 kts | 37° |
| 2026-04-24 22:37 | 32.73538 | -117.20476 | 18 ft | 12 kts | 49° |
| 2026-04-24 22:37 | 32.73587 | -117.20402 | 17 ft | 11 kts | 56° |
| 2026-04-24 22:37 | 32.73582 | -117.20312 | 20 ft | 11 kts | 104° |
| 2026-04-24 22:37 | 32.73560 | -117.20226 | 21 ft | 11 kts | 107° |
| 2026-04-24 22:38 | 32.73539 | -117.20142 | 22 ft | 11 kts | 106° |
| 2026-04-24 22:38 | 32.73514 | -117.20038 | 23 ft | 15 kts | 105° |
| 2026-04-24 22:38 | 32.73480 | -117.19900 | 24 ft | 18 kts | 107° |
| 2026-04-24 22:38 | 32.73446 | -117.19757 | 25 ft | 18 kts | 105° |
| 2026-04-24 22:39 | 32.73412 | -117.19619 | 23 ft | 17 kts | 106° |
| 2026-04-24 22:39 | 32.73380 | -117.19486 | 23 ft | 16 kts | 106° |
| 2026-04-24 22:39 | 32.73349 | -117.19358 | 20 ft | 16 kts | 106° |
| 2026-04-24 22:39 | 32.73318 | -117.19231 | 19 ft | 17 kts | 105° |
| 2026-04-24 22:40 | 32.73295 | -117.19137 | 20 ft | 19 kts | 106° |
| 2026-04-24 22:40 | 32.73260 | -117.18992 | 21 ft | 18 kts | 105° |
| 2026-04-24 22:40 | 32.73226 | -117.18851 | 24 ft | 17 kts | 106° |
| 2026-04-24 22:40 | 32.73194 | -117.18716 | 24 ft | 17 kts | 106° |
| 2026-04-24 22:41 | 32.73162 | -117.18586 | 22 ft | 16 kts | 105° |
| 2026-04-24 22:41 | 32.73132 | -117.18460 | 20 ft | 15 kts | 106° |
| 2026-04-24 22:41 | 32.73102 | -117.18340 | 21 ft | 15 kts | 106° |
| 2026-04-24 22:41 | 32.73074 | -117.18225 | 19 ft | 14 kts | 105° |
| 2026-04-24 22:42 | 32.73045 | -117.18107 | 17 ft | 17 kts | 106° |
| 2026-04-24 22:42 | 32.73009 | -117.17958 | 20 ft | 19 kts | 106° |
| 2026-04-24 22:42 | 32.72974 | -117.17810 | 16 ft | 18 kts | 105° |
| 2026-04-24 22:42 | 32.72952 | -117.17679 | 17 ft | 11 kts | 82° |
| 2026-04-24 22:43 | 32.72971 | -117.17602 | 20 ft | 9 kts | 68° |
| 2026-04-24 22:43 | 32.73022 | -117.17593 | 21 ft | 11 kts | 298° |
| 2026-04-24 22:43 | 32.73072 | -117.17786 | 18 ft | 55 kts | 286° |
| 2026-04-24 22:43 | 32.73247 | -117.18510 | 25 ft | 125 kts | 286° |
| 2026-04-24 22:44 | 32.73554 | -117.19702 | 163 ft | 169 kts | 284° |
| 2026-04-24 22:44 | 32.73890 | -117.21047 | 1062 ft | 167 kts | 282° |
| 2026-04-24 22:44 | 32.74394 | -117.22343 | 1796 ft | 182 kts | 301° |
| 2026-04-24 22:44 | 32.75154 | -117.23582 | 2578 ft | 190 kts | 303° |
| 2026-04-24 22:45 | 32.75942 | -117.24855 | 3493 ft | 192 kts | 306° |
| 2026-04-24 22:45 | 32.76738 | -117.26166 | 4213 ft | 205 kts | 304° |
| 2026-04-24 22:45 | 32.77590 | -117.27671 | 4434 ft | 234 kts | 303° |
| 2026-04-24 22:45 | 32.78554 | -117.29380 | 4753 ft | 261 kts | 304° |
| 2026-04-24 22:46 | 32.79583 | -117.31195 | 5543 ft | 267 kts | 303° |
| 2026-04-24 22:46 | 32.80656 | -117.32990 | 6554 ft | 265 kts | 305° |
| 2026-04-24 22:46 | 32.81786 | -117.34741 | 7369 ft | 270 kts | 306° |
| 2026-04-24 22:46 | 32.82937 | -117.36501 | 7807 ft | 273 kts | 306° |
| 2026-04-24 22:47 | 32.84107 | -117.38295 | 7971 ft | 275 kts | 306° |
| 2026-04-24 22:47 | 32.85275 | -117.40094 | 7973 ft | 275 kts | 305° |
| 2026-04-24 22:47 | 32.86440 | -117.41893 | 7984 ft | 275 kts | 305° |
| 2026-04-24 22:47 | 32.87604 | -117.43695 | 7985 ft | 275 kts | 305° |
| 2026-04-24 22:48 | 32.88770 | -117.45503 | 7976 ft | 275 kts | 305° |
| 2026-04-24 22:48 | 32.89935 | -117.47312 | 7977 ft | 276 kts | 305° |
| 2026-04-24 22:48 | 32.91101 | -117.49125 | 7969 ft | 276 kts | 305° |
| 2026-04-24 22:48 | 32.92268 | -117.50939 | 7968 ft | 276 kts | 305° |
| 2026-04-24 22:49 | 32.93435 | -117.52755 | 7962 ft | 276 kts | 305° |
| 2026-04-24 22:49 | 32.94601 | -117.54571 | 7961 ft | 276 kts | 305° |
| 2026-04-24 22:49 | 32.95764 | -117.56384 | 7960 ft | 275 kts | 305° |
| 2026-04-24 22:49 | 32.96932 | -117.58206 | 8094 ft | 279 kts | 305° |
| 2026-04-24 22:50 | 32.98110 | -117.60045 | 8910 ft | 278 kts | 304° |
| 2026-04-24 22:50 | 32.99280 | -117.61870 | 9902 ft | 277 kts | 304° |
| 2026-04-24 22:50 | 33.00461 | -117.63717 | 10516 ft | 289 kts | 304° |
| 2026-04-24 22:50 | 33.01732 | -117.65710 | 10693 ft | 314 kts | 304° |
| 2026-04-24 22:51 | 33.03101 | -117.67853 | 10970 ft | 334 kts | 304° |
| 2026-04-24 22:51 | 33.04526 | -117.70081 | 11589 ft | 341 kts | 304° |
| 2026-04-24 22:51 | 33.05966 | -117.72327 | 12389 ft | 342 kts | 304° |
| 2026-04-24 22:51 | 33.07587 | -117.74421 | 13217 ft | 347 kts | 313° |
| 2026-04-24 22:52 | 33.09437 | -117.76297 | 13959 ft | 351 kts | 316° |
| 2026-04-24 22:52 | 33.11343 | -117.78133 | 14632 ft | 354 kts | 316° |
| 2026-04-24 22:52 | 33.13255 | -117.79990 | 15317 ft | 356 kts | 315° |
| 2026-04-24 22:52 | 33.15160 | -117.81888 | 16019 ft | 357 kts | 314° |
| 2026-04-24 22:53 | 33.17033 | -117.83786 | 16697 ft | 359 kts | 314° |
| 2026-04-24 22:53 | 33.18941 | -117.85731 | 17364 ft | 362 kts | 313° |
| 2026-04-24 22:53 | 33.20804 | -117.87746 | 18012 ft | 363 kts | 310° |
| 2026-04-24 22:53 | 33.22610 | -117.89868 | 18584 ft | 365 kts | 309° |
| 2026-04-24 22:54 | 33.24399 | -117.92030 | 19160 ft | 367 kts | 308° |
| 2026-04-24 22:54 | 33.26191 | -117.94206 | 19748 ft | 368 kts | 308° |
| 2026-04-24 22:54 | 33.27998 | -117.96395 | 20316 ft | 371 kts | 308° |
| 2026-04-24 22:54 | 33.29843 | -117.98623 | 20875 ft | 373 kts | 308° |
| 2026-04-24 22:55 | 33.31655 | -118.00801 | 21419 ft | 376 kts | 308° |
| 2026-04-24 22:55 | 33.33530 | -118.03052 | 21945 ft | 378 kts | 308° |
| 2026-04-24 22:55 | 33.35370 | -118.05257 | 22468 ft | 381 kts | 308° |
| 2026-04-24 22:55 | 33.37245 | -118.07503 | 22975 ft | 383 kts | 308° |
| 2026-04-24 22:56 | 33.39133 | -118.09765 | 23530 ft | 384 kts | 308° |
| 2026-04-24 22:56 | 33.41027 | -118.12034 | 23967 ft | 386 kts | 308° |
| 2026-04-24 22:56 | 33.42931 | -118.14317 | 24368 ft | 389 kts | 308° |
| 2026-04-24 22:56 | 33.44848 | -118.16618 | 24737 ft | 392 kts | 308° |
| 2026-04-24 22:57 | 33.46785 | -118.18945 | 25124 ft | 395 kts | 308° |
| 2026-04-24 22:57 | 33.48730 | -118.21281 | 25516 ft | 397 kts | 308° |
| 2026-04-24 22:57 | 33.50686 | -118.23633 | 25894 ft | 400 kts | 308° |
| 2026-04-24 22:57 | 33.52656 | -118.26003 | 26265 ft | 402 kts | 308° |
| 2026-04-24 22:58 | 33.54634 | -118.28384 | 26611 ft | 405 kts | 308° |
| 2026-04-24 22:58 | 33.56627 | -118.30785 | 27022 ft | 406 kts | 307° |
| 2026-04-24 22:58 | 33.58620 | -118.33186 | 27452 ft | 407 kts | 307° |
| 2026-04-24 22:58 | 33.60620 | -118.35599 | 27770 ft | 410 kts | 307° |
| 2026-04-24 22:59 | 33.62641 | -118.38039 | 28067 ft | 413 kts | 307° |
| 2026-04-24 22:59 | 33.64670 | -118.40492 | 28381 ft | 416 kts | 307° |
| 2026-04-24 22:59 | 33.68763 | -118.45442 | 29028 ft | 420 kts | 307° |
| 2026-04-24 23:00 | 33.70820 | -118.47931 | 29428 ft | 419 kts | 307° |
| 2026-04-24 23:00 | 33.72870 | -118.50410 | 29956 ft | 417 kts | 307° |
| 2026-04-24 23:00 | 33.74906 | -118.52873 | 30414 ft | 414 kts | 306° |
| 2026-04-24 23:00 | 33.76928 | -118.55324 | 30885 ft | 411 kts | 306° |
| 2026-04-24 23:01 | 33.78936 | -118.57762 | 31260 ft | 410 kts | 306° |
| 2026-04-24 23:01 | 33.80940 | -118.60197 | 31611 ft | 410 kts | 306° |
| 2026-04-24 23:01 | 33.82937 | -118.62628 | 31985 ft | 408 kts | 306° |
| 2026-04-24 23:01 | 33.84930 | -118.65052 | 32403 ft | 406 kts | 306° |
| 2026-04-24 23:02 | 33.86906 | -118.67459 | 32796 ft | 404 kts | 306° |
| 2026-04-24 23:02 | 33.88875 | -118.69862 | 33162 ft | 403 kts | 306° |
| 2026-04-24 23:02 | 33.90843 | -118.72261 | 33516 ft | 402 kts | 306° |
| 2026-04-24 23:02 | 33.92804 | -118.74652 | 33942 ft | 400 kts | 306° |
| 2026-04-24 23:03 | 33.94747 | -118.77022 | 34313 ft | 397 kts | 306° |
| 2026-04-24 23:03 | 33.96684 | -118.79388 | 34613 ft | 395 kts | 305° |
| 2026-04-24 23:03 | 33.98610 | -118.81745 | 34870 ft | 395 kts | 305° |
| 2026-04-24 23:03 | 34.00538 | -118.84106 | 35133 ft | 395 kts | 305° |
| 2026-04-24 23:04 | 34.02462 | -118.86464 | 35397 ft | 394 kts | 305° |
| 2026-04-24 23:04 | 34.04382 | -118.88816 | 35686 ft | 393 kts | 305° |
| 2026-04-24 23:04 | 34.06301 | -118.91160 | 35966 ft | 394 kts | 306° |
| 2026-04-24 23:05 | 34.10188 | -118.95917 | 35968 ft | 402 kts | 305° |
| 2026-04-24 23:05 | 34.14118 | -119.00826 | 35953 ft | 407 kts | 303° |
| 2026-04-24 23:06 | 34.17222 | -119.06367 | 35948 ft | 397 kts | 294° |
| 2026-04-24 23:06 | 34.20047 | -119.12048 | 35946 ft | 397 kts | 294° |
| 2026-04-24 23:07 | 34.22926 | -119.17747 | 35950 ft | 397 kts | 294° |
| 2026-04-24 23:07 | 34.25831 | -119.23420 | 35958 ft | 397 kts | 294° |
| 2026-04-24 23:08 | 34.28740 | -119.29094 | 35943 ft | 396 kts | 294° |
| 2026-04-24 23:08 | 34.31636 | -119.34755 | 35941 ft | 395 kts | 294° |
| 2026-04-24 23:09 | 34.34530 | -119.40413 | 35947 ft | 395 kts | 294° |
| 2026-04-24 23:09 | 34.37451 | -119.46060 | 35937 ft | 396 kts | 294° |
| 2026-04-24 23:10 | 34.40324 | -119.51736 | 35965 ft | 396 kts | 296° |
| 2026-04-24 23:10 | 34.43958 | -119.56887 | 35955 ft | 408 kts | 306° |
| 2026-04-24 23:11 | 34.47971 | -119.61744 | 35947 ft | 407 kts | 306° |
| 2026-04-24 23:11 | 34.51951 | -119.66616 | 35947 ft | 406 kts | 306° |
| 2026-04-24 23:12 | 34.55941 | -119.71490 | 35940 ft | 409 kts | 306° |
| 2026-04-24 23:12 | 34.59928 | -119.76392 | 35936 ft | 407 kts | 305° |
| 2026-04-24 23:13 | 34.63772 | -119.81388 | 35928 ft | 406 kts | 305° |
| 2026-04-24 23:13 | 34.67742 | -119.86234 | 35931 ft | 404 kts | 304° |
| 2026-04-24 23:14 | 34.71680 | -119.91130 | 35966 ft | 407 kts | 306° |
| 2026-04-24 23:14 | 34.75735 | -119.95983 | 35943 ft | 410 kts | 306° |
| 2026-04-24 23:15 | 34.79730 | -120.00934 | 35966 ft | 411 kts | 305° |
| 2026-04-24 23:15 | 34.83716 | -120.05916 | 35975 ft | 411 kts | 305° |
| 2026-04-24 23:16 | 34.87715 | -120.10901 | 35968 ft | 411 kts | 305° |
| 2026-04-24 23:16 | 34.91808 | -120.15823 | 35951 ft | 413 kts | 305° |
| 2026-04-24 23:17 | 34.95681 | -120.20903 | 36002 ft | 409 kts | 304° |
| 2026-04-24 23:17 | 34.99667 | -120.25885 | 35994 ft | 411 kts | 305° |
| 2026-04-24 23:18 | 35.03708 | -120.30835 | 35994 ft | 411 kts | 305° |
| 2026-04-24 23:18 | 35.07661 | -120.35863 | 36007 ft | 411 kts | 305° |
| 2026-04-24 23:19 | 35.11772 | -120.40750 | 35985 ft | 414 kts | 308° |
| 2026-04-24 23:19 | 35.16046 | -120.45482 | 35976 ft | 415 kts | 309° |
| 2026-04-24 23:20 | 35.20322 | -120.50236 | 35964 ft | 416 kts | 308° |
| 2026-04-24 23:20 | 35.24554 | -120.54971 | 36014 ft | 415 kts | 309° |
| 2026-04-24 23:21 | 35.28818 | -120.59765 | 35989 ft | 417 kts | 309° |
| 2026-04-24 23:21 | 35.33086 | -120.64584 | 35982 ft | 417 kts | 309° |
| 2026-04-24 23:22 | 35.37350 | -120.69397 | 35985 ft | 417 kts | 309° |
| 2026-04-24 23:22 | 35.41612 | -120.74215 | 36002 ft | 417 kts | 309° |
| 2026-04-24 23:23 | 35.45861 | -120.79053 | 35971 ft | 417 kts | 308° |
| 2026-04-24 23:23 | 35.50268 | -120.83706 | 35986 ft | 422 kts | 314° |
| 2026-04-24 23:24 | 35.54959 | -120.88029 | 35970 ft | 421 kts | 314° |
| 2026-04-24 23:24 | 35.59639 | -120.92341 | 35968 ft | 415 kts | 315° |
| 2026-04-24 23:24 | 35.61911 | -120.94434 | 35949 ft | 402 kts | 314° |
| 2026-04-24 23:25 | 35.64126 | -120.96479 | 35953 ft | 395 kts | 314° |
| 2026-04-24 23:25 | 35.66287 | -120.98483 | 35957 ft | 383 kts | 314° |
| 2026-04-24 23:25 | 35.68374 | -121.00421 | 35944 ft | 368 kts | 313° |
| 2026-04-24 23:25 | 35.70375 | -121.02283 | 35944 ft | 354 kts | 313° |
| 2026-04-24 23:26 | 35.72316 | -121.04095 | 35954 ft | 348 kts | 313° |
| 2026-04-24 23:26 | 35.76216 | -121.07768 | 35941 ft | 357 kts | 313° |
| 2026-04-24 23:26 | 35.78188 | -121.09620 | 35613 ft | 356 kts | 313° |
| 2026-04-24 23:27 | 35.80172 | -121.11476 | 34998 ft | 361 kts | 313° |
| 2026-04-24 23:27 | 35.82204 | -121.13389 | 34061 ft | 375 kts | 313° |
| 2026-04-24 23:27 | 35.84272 | -121.15336 | 33364 ft | 381 kts | 313° |
| 2026-04-24 23:27 | 35.86372 | -121.17300 | 32992 ft | 377 kts | 313° |
| 2026-04-24 23:28 | 35.88449 | -121.19238 | 32702 ft | 371 kts | 313° |
| 2026-04-24 23:28 | 35.90494 | -121.21150 | 32343 ft | 367 kts | 313° |
| 2026-04-24 23:28 | 35.91868 | -121.22437 | 32093 ft | 366 kts | 314° |
| 2026-04-24 23:28 | 35.93896 | -121.24342 | 31624 ft | 366 kts | 314° |
| 2026-04-24 23:29 | 35.95913 | -121.26240 | 31245 ft | 363 kts | 314° |
| 2026-04-24 23:29 | 35.97912 | -121.28120 | 30936 ft | 360 kts | 314° |
| 2026-04-24 23:29 | 35.99868 | -121.29962 | 30583 ft | 357 kts | 314° |
| 2026-04-24 23:29 | 36.01837 | -121.31817 | 30213 ft | 356 kts | 314° |
| 2026-04-24 23:30 | 36.03807 | -121.33675 | 29824 ft | 354 kts | 315° |
| 2026-04-24 23:30 | 36.05754 | -121.35511 | 29409 ft | 351 kts | 315° |
| 2026-04-24 23:30 | 36.07692 | -121.37298 | 28900 ft | 346 kts | 318° |
| 2026-04-24 23:30 | 36.09714 | -121.38941 | 28036 ft | 351 kts | 321° |
| 2026-04-24 23:31 | 36.11799 | -121.40540 | 27263 ft | 353 kts | 322° |
| 2026-04-24 23:31 | 36.13864 | -121.42101 | 26899 ft | 343 kts | 322° |
| 2026-04-24 23:31 | 36.15884 | -121.43633 | 26507 ft | 336 kts | 322° |
| 2026-04-24 23:31 | 36.17847 | -121.45132 | 26150 ft | 327 kts | 322° |
| 2026-04-24 23:32 | 36.19759 | -121.46600 | 25813 ft | 319 kts | 322° |
| 2026-04-24 23:32 | 36.21623 | -121.48044 | 25504 ft | 313 kts | 322° |
| 2026-04-24 23:32 | 36.23460 | -121.49474 | 25181 ft | 311 kts | 322° |
| 2026-04-24 23:32 | 36.25311 | -121.50918 | 24884 ft | 320 kts | 322° |
| 2026-04-24 23:33 | 36.27250 | -121.52441 | 24518 ft | 339 kts | 323° |
| 2026-04-24 23:33 | 36.29250 | -121.54007 | 24174 ft | 338 kts | 323° |
| 2026-04-24 23:33 | 36.31213 | -121.55540 | 23829 ft | 330 kts | 323° |
| 2026-04-24 23:33 | 36.33131 | -121.57037 | 23463 ft | 322 kts | 323° |
| 2026-04-24 23:34 | 36.34996 | -121.58500 | 23080 ft | 313 kts | 323° |
| 2026-04-24 23:34 | 36.36817 | -121.59924 | 22744 ft | 307 kts | 323° |
| 2026-04-24 23:34 | 36.38606 | -121.61324 | 22415 ft | 301 kts | 323° |
| 2026-04-24 23:34 | 36.40379 | -121.62718 | 22117 ft | 305 kts | 323° |
| 2026-04-24 23:35 | 36.42211 | -121.64166 | 21844 ft | 322 kts | 324° |
| 2026-04-24 23:35 | 36.44154 | -121.65695 | 21467 ft | 334 kts | 324° |
| 2026-04-24 23:35 | 36.46104 | -121.67223 | 21091 ft | 328 kts | 324° |
| 2026-04-24 23:35 | 36.48004 | -121.68713 | 20742 ft | 319 kts | 323° |
| 2026-04-24 23:36 | 36.49853 | -121.70173 | 20413 ft | 311 kts | 323° |
| 2026-04-24 23:36 | 36.51674 | -121.71611 | 19955 ft | 308 kts | 323° |
| 2026-04-24 23:36 | 36.53457 | -121.73019 | 19642 ft | 300 kts | 323° |
| 2026-04-24 23:36 | 36.55186 | -121.74386 | 19342 ft | 296 kts | 323° |
| 2026-04-24 23:37 | 36.56915 | -121.75755 | 19040 ft | 294 kts | 323° |
| 2026-04-24 23:37 | 36.58655 | -121.77130 | 18758 ft | 302 kts | 323° |
| 2026-04-24 23:37 | 36.62338 | -121.80058 | 18046 ft | 315 kts | 324° |
| 2026-04-24 23:38 | 36.64163 | -121.81499 | 17684 ft | 306 kts | 324° |
| 2026-04-24 23:38 | 36.65939 | -121.82903 | 17349 ft | 298 kts | 324° |
| 2026-04-24 23:38 | 36.67661 | -121.84266 | 17064 ft | 290 kts | 324° |
| 2026-04-24 23:38 | 36.69351 | -121.85606 | 16771 ft | 286 kts | 324° |
| 2026-04-24 23:39 | 36.71022 | -121.86934 | 16479 ft | 284 kts | 324° |
| 2026-04-24 23:39 | 36.72709 | -121.88278 | 16233 ft | 294 kts | 324° |
| 2026-04-24 23:39 | 36.74537 | -121.89578 | 15917 ft | 311 kts | 337° |
| 2026-04-24 23:39 | 36.76633 | -121.90257 | 15592 ft | 309 kts | 345° |
| 2026-04-24 23:40 | 36.78709 | -121.90801 | 15247 ft | 301 kts | 345° |
| 2026-04-24 23:40 | 36.80730 | -121.91323 | 14939 ft | 293 kts | 347° |
| 2026-04-24 23:40 | 36.82696 | -121.91841 | 14645 ft | 286 kts | 347° |
| 2026-04-24 23:40 | 36.84630 | -121.92360 | 14357 ft | 283 kts | 347° |
| 2026-04-24 23:41 | 36.86547 | -121.92885 | 14074 ft | 282 kts | 347° |
| 2026-04-24 23:41 | 36.88482 | -121.93421 | 13801 ft | 290 kts | 347° |
| 2026-04-24 23:41 | 36.90497 | -121.93983 | 13470 ft | 301 kts | 347° |
| 2026-04-24 23:41 | 36.92504 | -121.94544 | 13113 ft | 297 kts | 347° |
| 2026-04-24 23:42 | 36.94517 | -121.95107 | 12779 ft | 289 kts | 347° |
| 2026-04-24 23:42 | 36.96409 | -121.95714 | 12477 ft | 280 kts | 344° |
| 2026-04-24 23:42 | 36.98248 | -121.96425 | 12202 ft | 274 kts | 343° |
| 2026-04-24 23:42 | 37.00086 | -121.97159 | 11912 ft | 273 kts | 343° |
| 2026-04-24 23:43 | 37.01873 | -121.97872 | 11647 ft | 276 kts | 343° |
| 2026-04-24 23:43 | 37.03743 | -121.98615 | 11381 ft | 289 kts | 342° |
| 2026-04-24 23:43 | 37.05680 | -121.99380 | 11066 ft | 291 kts | 342° |
| 2026-04-24 23:43 | 37.07592 | -122.00132 | 10712 ft | 285 kts | 342° |
| 2026-04-24 23:44 | 37.09455 | -122.00863 | 10431 ft | 277 kts | 342° |
| 2026-04-24 23:44 | 37.11267 | -122.01573 | 10197 ft | 268 kts | 341° |
| 2026-04-24 23:44 | 37.13017 | -122.02258 | 10087 ft | 260 kts | 341° |
| 2026-04-24 23:44 | 37.14728 | -122.02933 | 9924 ft | 258 kts | 340° |
| 2026-04-24 23:45 | 37.16474 | -122.03625 | 9677 ft | 270 kts | 340° |
| 2026-04-24 23:45 | 37.18296 | -122.04338 | 9396 ft | 275 kts | 341° |
| 2026-04-24 23:45 | 37.20105 | -122.05041 | 9095 ft | 269 kts | 341° |
| 2026-04-24 23:45 | 37.21865 | -122.05729 | 8789 ft | 261 kts | 340° |
| 2026-04-24 23:46 | 37.23571 | -122.06400 | 8548 ft | 253 kts | 340° |
| 2026-04-24 23:46 | 37.25243 | -122.07055 | 8294 ft | 251 kts | 341° |
| 2026-04-24 23:46 | 37.26926 | -122.07719 | 8045 ft | 257 kts | 341° |
| 2026-04-24 23:46 | 37.28667 | -122.08404 | 7718 ft | 268 kts | 340° |
| 2026-04-24 23:47 | 37.30471 | -122.09114 | 7381 ft | 275 kts | 340° |
| 2026-04-24 23:47 | 37.32281 | -122.09827 | 7024 ft | 277 kts | 340° |
| 2026-04-24 23:47 | 37.34153 | -122.10564 | 6653 ft | 280 kts | 341° |
| 2026-04-24 23:47 | 37.35991 | -122.11288 | 6275 ft | 281 kts | 340° |
| 2026-04-24 23:48 | 37.37865 | -122.12026 | 5889 ft | 283 kts | 342° |
| 2026-04-24 23:48 | 37.39762 | -122.12688 | 5547 ft | 283 kts | 342° |
| 2026-04-24 23:48 | 37.41641 | -122.13319 | 5193 ft | 277 kts | 344° |
| 2026-04-24 23:48 | 37.43480 | -122.13937 | 4864 ft | 271 kts | 343° |
| 2026-04-24 23:49 | 37.45278 | -122.14546 | 4527 ft | 265 kts | 344° |
| 2026-04-24 23:49 | 37.47036 | -122.15127 | 4218 ft | 258 kts | 343° |
| 2026-04-24 23:49 | 37.48758 | -122.15691 | 3911 ft | 253 kts | 342° |
| 2026-04-24 23:49 | 37.50443 | -122.16247 | 3605 ft | 248 kts | 343° |
| 2026-04-24 23:50 | 37.52097 | -122.16789 | 3318 ft | 243 kts | 343° |
| 2026-04-24 23:50 | 37.53567 | -122.17601 | 3252 ft | 218 kts | 316° |
| 2026-04-24 23:50 | 37.54390 | -122.19095 | 3008 ft | 201 kts | 293° |
| 2026-04-24 23:50 | 37.55039 | -122.20615 | 2734 ft | 192 kts | 296° |
| 2026-04-24 23:51 | 37.55670 | -122.22080 | 2472 ft | 187 kts | 295° |
| 2026-04-24 23:51 | 37.56261 | -122.23494 | 2212 ft | 177 kts | 294° |
| 2026-04-24 23:51 | 37.56814 | -122.24822 | 1977 ft | 165 kts | 294° |
| 2026-04-24 23:51 | 37.57324 | -122.26042 | 1768 ft | 152 kts | 294° |
| 2026-04-24 23:52 | 37.57798 | -122.27181 | 1567 ft | 143 kts | 294° |
| 2026-04-24 23:52 | 37.58252 | -122.28272 | 1362 ft | 142 kts | 294° |
| 2026-04-24 23:52 | 37.58703 | -122.29363 | 1174 ft | 139 kts | 295° |
| 2026-04-24 23:52 | 37.59148 | -122.30425 | 1014 ft | 136 kts | 295° |
| 2026-04-24 23:53 | 37.59589 | -122.31484 | 810 ft | 135 kts | 294° |
| 2026-04-24 23:53 | 37.60026 | -122.32529 | 626 ft | 134 kts | 294° |
| 2026-04-24 23:53 | 37.60448 | -122.33551 | 488 ft | 131 kts | 293° |
| 2026-04-24 23:53 | 37.60872 | -122.34573 | 300 ft | 131 kts | 293° |
| 2026-04-24 23:54 | 37.61300 | -122.35584 | 115 ft | 130 kts | 294° |
| 2026-04-24 23:54 | 37.61713 | -122.36570 | 19 ft | 119 kts | 292° |
| 2026-04-24 23:54 | 37.62013 | -122.37286 | 18 ft | 64 kts | 298° |
| 2026-04-24 23:54 | 37.62134 | -122.37576 | 18 ft | 24 kts | 297° |
| 2026-04-24 23:55 | 37.62190 | -122.37763 | 20 ft | 23 kts | 281° |
| 2026-04-24 23:55 | 37.62214 | -122.37958 | 26 ft | 22 kts | 278° |
| 2026-04-24 23:55 | 37.62229 | -122.38148 | 23 ft | 22 kts | 271° |
| 2026-04-24 23:55 | 37.62222 | -122.38334 | 20 ft | 21 kts | 268° |
| 2026-04-24 23:56 | 37.62216 | -122.38490 | 20 ft | 14 kts | 265° |
| 2026-04-24 23:56 | 37.62202 | -122.38605 | 18 ft | 13 kts | 243° |
| 2026-04-24 23:56 | 37.62133 | -122.38598 | 17 ft | 13 kts | 120° |
| 2026-04-24 23:56 | 37.62063 | -122.38566 | 18 ft | 13 kts | 206° |
| 2026-04-24 23:57 | 37.62017 | -122.38604 | 17 ft | 5 kts | 234° |
| 2026-04-24 23:57 | 37.62021 | -122.38649 | 15 ft | 5 kts | 292° |
| 2026-04-24 23:57 | 37.62025 | -122.38660 | 15 ft | 0 kts | 289° |
| 2026-04-24 23:57 | 37.62025 | -122.38663 | 16 ft | 0 kts | 289° |